Time;durP1;ratioP1;P1;durP2;ratioP2;P2;SDS_P1;SDS_P2;PMS_P1;PMS_P2;Temp;Humidity;BMP_temperature;BMP_pressure;BME280_temperature;BME280_humidity;BME280_pressure;Samples;Min_cycle;Max_cycle;Signal;HPM_P1;HPM_P2
2021/09/07 00:05:05;;;;;;;5.20;3.73;;;;;;;7.88;100.00;101445.31;20888096;28;20662;-64
2021/09/07 00:15:12;;;;;;;5.47;4.07;;;;;;;7.73;100.00;101434.38;20877840;28;20225;-64
2021/09/07 00:25:14;;;;;;;8.40;3.67;;;;;;;7.61;100.00;101442.75;20880782;28;20376;-63
2021/09/07 00:35:18;;;;;;;5.27;3.77;;;;;;;7.63;100.00;101435.56;20896192;28;20233;-65
2021/09/07 00:45:21;;;;;;;3.27;2.97;;;;;;;7.72;100.00;101425.53;20886977;28;20234;-63
2021/09/07 00:55:26;;;;;;;5.50;3.83;;;;;;;7.80;100.00;101411.97;20903987;28;20224;-63
2021/09/07 01:05:29;;;;;;;5.10;4.60;;;;;;;7.93;100.00;101405.28;20880329;28;20239;-62
2021/09/07 01:15:35;;;;;;;4.67;4.20;;;;;;;7.81;100.00;101403.06;20979723;28;20264;-63
2021/09/07 01:25:39;;;;;;;3.90;3.53;;;;;;;7.69;100.00;101392.88;20961671;28;20228;-64
2021/09/07 01:35:42;;;;;;;5.40;4.23;;;;;;;7.52;100.00;101381.03;20981507;28;20230;-64
2021/09/07 01:45:46;;;;;;;4.73;4.33;;;;;;;7.41;100.00;101388.50;20968424;28;20292;-63
2021/09/07 01:55:49;;;;;;;8.83;7.07;;;;;;;7.50;100.00;101387.31;20972856;28;20249;-64
2021/09/07 02:05:57;;;;;;;8.40;6.73;;;;;;;7.55;100.00;101380.94;20974923;28;20229;-64
2021/09/07 02:15:59;;;;;;;8.83;7.73;;;;;;;7.74;100.00;101374.97;20962800;28;20238;-63
2021/09/07 02:26:03;;;;;;;7.63;6.30;;;;;;;7.78;100.00;101365.97;20972899;28;20288;-66
2021/09/07 02:36:07;;;;;;;9.60;7.60;;;;;;;7.73;100.00;101371.44;20946648;28;20231;-63
2021/09/07 02:46:11;;;;;;;8.53;7.40;;;;;;;7.74;100.00;101364.34;20977649;28;20294;-64
2021/09/07 02:56:15;;;;;;;6.80;6.17;;;;;;;7.74;100.00;101345.75;20953485;28;20787;-64
2021/09/07 03:06:19;;;;;;;9.93;7.53;;;;;;;7.68;100.00;101343.31;20975161;28;20231;-64
2021/09/07 03:16:22;;;;;;;8.57;7.77;;;;;;;7.59;100.00;101318.81;20960939;28;20229;-64
2021/09/07 03:26:29;;;;;;;11.00;9.10;;;;;;;7.83;100.00;101348.94;20967236;28;20230;-63
2021/09/07 03:36:33;;;;;;;8.60;7.70;;;;;;;7.76;100.00;101343.91;20967919;28;20273;-64
2021/09/07 03:46:38;;;;;;;7.90;6.90;;;;;;;7.62;100.00;101352.34;21031442;28;20254;-63
2021/09/07 03:56:41;;;;;;;9.10;8.20;;;;;;;7.47;100.00;101335.19;21044487;28;20625;-64
2021/09/07 04:06:47;;;;;;;9.40;7.47;;;;;;;7.59;100.00;101344.53;20952926;28;20255;-63
2021/09/07 04:16:50;;;;;;;11.10;8.63;;;;;;;7.75;100.00;101344.81;20986900;28;20232;-64
2021/09/07 04:26:55;;;;;;;10.33;8.33;;;;;;;8.05;100.00;101349.03;20965475;28;20909;-64
2021/09/07 04:36:57;;;;;;;8.80;7.90;;;;;;;8.54;100.00;101357.81;20963199;28;20314;-62
2021/09/07 04:47:01;;;;;;;6.80;6.10;;;;;;;9.01;100.00;101364.75;20933579;28;20284;-64
2021/09/07 04:57:05;;;;;;;7.73;6.40;;;;;;;9.69;100.00;101363.59;20898528;28;20230;-64
2021/09/07 05:07:09;;;;;;;6.43;5.73;;;;;;;10.31;100.00;101370.59;20943373;28;20223;-64
2021/09/07 05:17:11;;;;;;;6.67;5.97;;;;;;;11.21;100.00;101373.41;20972225;28;20223;-63
2021/09/07 05:27:15;;;;;;;6.77;6.13;;;;;;;12.18;100.00;101377.22;20979264;28;20230;-63
2021/09/07 05:37:19;;;;;;;6.43;5.30;;;;;;;12.88;100.00;101388.50;20883835;28;20316;-63
2021/09/07 05:47:23;;;;;;;6.20;5.57;;;;;;;13.21;100.00;101380.38;20899326;28;20656;-64
2021/09/07 05:57:25;;;;;;;6.63;5.87;;;;;;;13.18;100.00;101397.47;20878202;28;20246;-63
2021/09/07 06:07:29;;;;;;;6.77;5.53;;;;;;;13.28;100.00;101414.75;20897359;28;20238;-63
2021/09/07 06:17:31;;;;;;;7.53;5.63;;;;;;;13.17;100.00;101411.84;20882685;28;20735;-64
2021/09/07 06:27:35;;;;;;;8.97;6.57;;;;;;;12.91;100.00;101401.72;20891367;28;20577;-65
2021/09/07 06:37:37;;;;;;;8.53;5.83;;;;;;;13.02;100.00;101401.97;20888264;28;20611;-63
2021/09/07 06:47:41;;;;;;;8.23;6.30;;;;;;;13.31;100.00;101403.84;20883174;28;20291;-62
2021/09/07 06:57:43;;;;;;;9.40;6.23;;;;;;;13.90;100.00;101407.47;20894934;28;20230;-63
2021/09/07 07:07:47;;;;;;;7.53;6.33;;;;;;;14.46;100.00;101404.97;20874385;28;20238;-62
2021/09/07 07:17:50;;;;;;;6.70;5.67;;;;;;;15.04;100.00;101407.47;20894165;28;20273;-64
2021/09/07 07:27:53;;;;;;;6.17;5.03;;;;;;;15.76;100.00;101412.47;20872564;28;20315;-63
2021/09/07 07:37:56;;;;;;;7.33;5.43;;;;;;;16.42;100.00;101411.38;20894563;28;20219;-64
2021/09/07 07:47:59;;;;;;;5.10;4.47;;;;;;;17.09;100.00;101417.31;20892733;28;20664;-63
2021/09/07 07:58:02;;;;;;;8.87;3.93;;;;;;;17.75;100.00;101431.28;20925987;28;20313;-64
2021/09/07 08:08:06;;;;;;;3.87;3.50;;;;;;;18.26;96.24;101437.16;20980651;28;20288;-64
2021/09/07 08:18:09;;;;;;;4.97;3.57;;;;;;;18.73;89.28;101452.34;20978624;28;20290;-64
2021/09/07 08:28:13;;;;;;;3.67;2.47;;;;;;;19.23;88.16;101461.75;20987960;28;20375;-64
2021/09/07 08:38:17;;;;;;;3.33;2.70;;;;;;;19.61;82.36;101442.34;20971742;28;20249;-66
2021/09/07 08:48:22;;;;;;;4.40;3.07;;;;;;;19.80;76.62;101454.34;20998629;28;20265;-64
2021/09/07 08:58:24;;;;;;;3.40;2.90;;;;;;;20.16;74.16;101448.47;20994208;28;20922;-61
2021/09/07 09:08:28;;;;;;;4.13;2.73;;;;;;;20.42;69.67;101436.22;20975305;28;20828;-61
2021/09/07 09:18:33;;;;;;;3.60;2.50;;;;;;;20.64;69.12;101423.50;20975171;28;20567;-62
2021/09/07 09:28:37;;;;;;;2.87;2.43;;;;;;;20.95;65.42;101432.44;20979399;28;20237;-63
2021/09/07 09:38:44;;;;;;;2.57;2.30;;;;;;;20.93;62.05;101432.59;20965538;28;20266;-62
2021/09/07 09:48:49;;;;;;;2.47;2.27;;;;;;;20.95;63.65;101425.16;20983481;28;20234;-61
2021/09/07 09:58:51;;;;;;;2.77;2.47;;;;;;;21.02;63.56;101415.47;20960881;28;20219;-62
2021/09/07 10:08:55;;;;;;;2.40;2.20;;;;;;;21.28;60.90;101417.69;20980657;28;20314;-62
2021/09/07 10:19:06;;;;;;;3.87;2.07;;;;;;;21.28;61.63;101417.69;20960605;28;20227;-63
2021/09/07 10:29:10;;;;;;;2.63;2.23;;;;;;;21.55;60.78;101409.72;20977509;28;20600;-63
2021/09/07 10:39:26;;;;;;;2.30;2.10;;;;;;;21.72;55.78;101411.72;20965644;28;20227;-62
2021/09/07 10:49:45;;;;;;;3.53;2.40;;;;;;;22.10;56.55;101404.53;20969886;28;20601;-62
2021/09/07 10:59:50;;;;;;;3.10;2.37;;;;;;;22.10;57.36;101388.19;20969634;28;20219;-63
2021/09/07 11:09:54;;;;;;;2.30;2.10;;;;;;;21.92;59.56;101380.78;20962996;28;20227;-62
2021/09/07 11:20:00;;;;;;;2.27;2.07;;;;;;;22.26;60.67;101399.34;20975377;28;20234;-64
2021/09/07 11:30:26;;;;;;;10.43;2.90;;;;;;;22.24;52.57;101398.63;20953809;28;20330;-65
2021/09/07 11:40:31;;;;;;;2.80;2.50;;;;;;;22.07;59.75;101393.97;20976224;28;20222;-62
2021/09/07 11:50:37;;;;;;;4.20;2.57;;;;;;;22.12;58.03;101387.06;20952878;28;20230;-62
2021/09/07 12:00:40;;;;;;;2.67;2.47;;;;;;;22.52;58.61;101378.63;20975378;28;20242;-62
2021/09/07 12:10:53;;;;;;;3.23;2.73;;;;;;;22.46;54.20;101373.75;20956768;28;20223;-63
2021/09/07 12:21:14;;;;;;;3.10;2.43;;;;;;;22.47;56.35;101363.75;20970462;28;20231;-63
2021/09/07 12:31:22;;;;;;;2.40;2.00;;;;;;;22.67;58.02;101356.38;20972522;28;20262;-63
2021/09/07 12:41:25;;;;;;;2.90;2.60;;;;;;;22.40;57.24;101347.19;20978780;28;20772;-62
2021/09/07 12:51:28;;;;;;;2.70;2.50;;;;;;;22.64;58.17;101355.66;20982226;28;20229;-63
2021/09/07 13:01:31;;;;;;;5.70;2.30;;;;;;;22.88;59.06;101356.97;20968811;28;20219;-60
2021/09/07 13:11:36;;;;;;;2.50;2.30;;;;;;;22.89;58.96;101347.81;20986245;28;20235;-61
2021/09/07 13:21:38;;;;;;;2.90;2.60;;;;;;;22.67;57.47;101331.88;20962581;28;20230;-64
2021/09/07 13:31:42;;;;;;;3.10;2.60;;;;;;;22.50;59.86;101326.22;20984161;28;20250;-61
2021/09/07 13:41:45;;;;;;;2.90;2.70;;;;;;;22.62;59.12;101335.03;20962692;28;20424;-62
2021/09/07 13:51:48;;;;;;;4.20;2.80;;;;;;;22.59;58.33;101325.31;20981304;28;20218;-62
2021/09/07 14:01:51;;;;;;;3.87;2.83;;;;;;;22.53;58.35;101320.47;20966348;28;20229;-63
2021/09/07 14:11:54;;;;;;;6.20;2.67;;;;;;;22.29;58.07;101314.75;20973034;28;20246;-62
2021/09/07 14:21:57;;;;;;;4.23;2.70;;;;;;;22.29;56.89;101312.03;20973468;28;20266;-63
2021/09/07 14:32:03;;;;;;;3.33;3.00;;;;;;;21.90;57.58;101327.56;20966872;28;20246;-62
2021/09/07 14:42:09;;;;;;;2.70;2.50;;;;;;;21.77;59.10;101317.00;21051446;28;20763;-63
2021/09/07 14:52:15;;;;;;;2.77;2.57;;;;;;;21.84;59.36;101309.16;21036681;28;20237;-63
2021/09/07 15:02:18;;;;;;;3.00;2.80;;;;;;;21.81;59.97;101299.44;21057552;28;20241;-62
2021/09/07 15:12:22;;;;;;;5.43;2.47;;;;;;;21.56;58.90;101291.91;21037221;28;20606;-63
2021/09/07 15:22:26;;;;;;;4.00;3.10;;;;;;;21.43;58.67;101294.06;21059498;28;20242;-63
2021/09/07 15:32:32;;;;;;;3.90;2.83;;;;;;;21.21;60.54;101303.38;21042781;28;20219;-63
2021/09/07 15:42:36;;;;;;;2.47;2.27;;;;;;;20.96;61.32;101307.47;21053823;28;20314;-63
2021/09/07 15:52:41;;;;;;;2.97;2.63;;;;;;;20.69;61.96;101299.16;21048865;28;20501;-65
2021/09/07 18:27:25;;;;;;;6.10;4.27;;;;;;;12.48;100.00;101310.41;20613998;27;8269230;-65
2021/09/07 18:37:50;;;;;;;8.10;4.53;;;;;;;12.41;100.00;101311.72;20876161;28;20240;-59
2021/09/07 18:48:12;;;;;;;9.63;5.93;;;;;;;12.22;100.00;101319.00;20915395;28;20240;-65
2021/09/07 18:58:35;;;;;;;8.97;6.73;;;;;;;12.09;100.00;101323.31;20896663;28;20234;-65
2021/09/07 19:08:53;;;;;;;8.97;6.80;;;;;;;11.96;100.00;101327.59;20910862;28;20372;-65
2021/09/07 19:19:23;;;;;;;7.43;4.83;;;;;;;11.57;100.00;101326.09;20856939;28;20234;-67
2021/09/07 19:29:47;;;;;;;5.10;4.60;;;;;;;11.22;100.00;101316.34;20933949;28;20576;-65
2021/09/07 19:40:10;;;;;;;5.63;5.07;;;;;;;11.06;100.00;101325.13;20852434;28;20451;-65
2021/09/07 19:50:28;;;;;;;7.27;5.37;;;;;;;10.98;100.00;101331.81;20805492;28;20330;-65
2021/09/07 20:00:51;;;;;;;8.60;5.70;;;;;;;10.75;100.00;101331.09;20889741;28;20229;-65
2021/09/07 20:11:09;;;;;;;6.60;4.40;;;;;;;10.54;100.00;101312.59;20882505;28;20253;-64
2021/09/07 20:21:30;;;;;;;5.77;4.57;;;;;;;10.32;100.00;101326.13;20886491;28;20231;-64
2021/09/07 20:31:47;;;;;;;5.63;4.87;;;;;;;10.16;100.00;101325.91;20875941;28;20223;-64
2021/09/07 20:42:11;;;;;;;4.40;4.00;;;;;;;9.99;100.00;101328.53;20896800;28;20292;-64
2021/09/07 20:52:29;;;;;;;5.60;5.00;;;;;;;9.84;100.00;101315.88;20874665;28;20355;-63
2021/09/07 21:02:50;;;;;;;5.17;4.67;;;;;;;9.73;100.00;101316.38;20862435;28;20227;-64
2021/09/07 21:13:07;;;;;;;4.60;4.20;;;;;;;9.59;100.00;101319.63;20878280;28;20783;-65
2021/09/07 21:23:29;;;;;;;8.10;5.70;;;;;;;9.42;100.00;101322.16;20890731;28;20904;-64
2021/09/07 21:33:46;;;;;;;6.33;5.73;;;;;;;9.46;100.00;101333.56;20882598;28;21185;-64
2021/09/07 21:44:09;;;;;;;7.10;6.40;;;;;;;9.45;100.00;101337.16;20801470;28;20334;-63
2021/09/07 21:54:26;;;;;;;5.50;4.83;;;;;;;9.32;100.00;101336.81;20804620;28;20791;-64
2021/09/07 22:04:49;;;;;;;5.97;5.27;;;;;;;9.20;100.00;101332.00;20785133;28;20708;-64
2021/09/07 22:15:14;;;;;;;9.03;5.60;;;;;;;9.06;100.00;101329.09;20809566;28;20290;-63
2021/09/07 22:25:37;;;;;;;8.73;5.47;;;;;;;8.86;100.00;101317.47;20787415;28;20727;-63
2021/09/07 22:35:56;;;;;;;5.63;4.77;;;;;;;8.65;100.00;101310.34;20799110;28;20237;-62
2021/09/07 22:46:19;;;;;;;5.17;4.67;;;;;;;8.72;100.00;101325.13;20775178;28;20309;-64
2021/09/07 22:56:37;;;;;;;6.30;5.70;;;;;;;8.60;100.00;101320.31;20813690;28;20255;-64
2021/09/07 23:07:00;;;;;;;8.90;6.50;;;;;;;8.60;100.00;101321.16;20793542;28;20452;-64
2021/09/07 23:17:16;;;;;;;6.47;5.23;;;;;;;8.44;100.00;101321.88;20809651;28;20235;-64
2021/09/07 23:27:45;;;;;;;7.80;6.03;;;;;;;8.35;100.00;101319.53;20734786;28;20231;-65
2021/09/07 23:38:09;;;;;;;6.23;5.57;;;;;;;8.36;100.00;101321.28;20733830;28;20240;-64
2021/09/07 23:48:31;;;;;;;10.00;8.43;;;;;;;8.30;100.00;101320.56;20728535;28;20229;-64
2021/09/07 23:58:48;;;;;;;10.23;8.90;;;;;;;8.22;100.00;101314.66;20727330;28;20231;-63
